Aérodrome :
LOGIN :

S'inscrire | Disclaimer

   EN    FR    IT 

 










Légende :    VFR   VFR Marginal   IFR   IFR Intensif   IFR Très Intensif
Visi : 
Plafond : 
>= 8 km
>= 3000ft
5 à 8 km
1000 à 3000 ft
1500m à 5 km
500 à 1000 ft
800 à 1500m
200 à 500 ft
< 800m
< 200 ft
Symboles :   Orages  Brouillard  Fortes neiges  Fortes précipitations  Vent > 20 kt
SIGMETs :   Divers  Orages  Givrage  Turbulence  Onde Orograph.  Cendres Volcan.







- Altitude de l'aérodrome : 124 ft
- Code IATA : RNS
- Voir les cartes d'approche


LFRN - Rennes

METARs EXPIRÉS :
  • 241430Z AUTO 23010KT 180V260 CAVOK 25/13 Q1018 NOSIG
  • 241400Z AUTO 20011KT 170V230 9999 BKN047 BKN062 25/14 Q1018 NOSIG
  • 241330Z AUTO 25011KT 210V280 CAVOK 25/12 Q1018 NOSIG
  • 241300Z AUTO 24009KT 190V280 9999 FEW041 OVC066 25/14 Q1018 NOSIG
  • 241230Z AUTO 26008KT 210V290 CAVOK 24/14 Q1019 NOSIG
  • 241200Z AUTO 25011KT 210V300 9999 SCT037 BKN054 BKN066 23/13 Q1019 NOSIG

Prévision TAF périmée.
ATIS : +33 2 99 67 72 50
Pas de NOTAMs connus pour ce terrain.



MET'MAP, la Météo Aéronautique d'un coup d'oeil ! - Copyright ORBIFLY Décembre 2007 - Disclaimer

ORBIFLY MET'MAP TEAM :

Programmation & Développement : Alexandra Zaïnal
Conception & Développement : Baudouin d'Aumeries
Co-Programmation & Développement : Marc-Olivier Méhu
Soutien technique & logistique : Manuel Goepfert

Contact : metmap@orbifly.com




SOURCES & CREDITS :

   NOAA